sensor_id;sensor_type;location;lat;lon;timestamp;pressure;altitude;pressure_sealevel;temperature;humidity
13015;BME280;6573;57.696;11.950;2022-11-03T00:01:35;100350.56;;;11.62;100.00
13015;BME280;6573;57.696;11.950;2022-11-03T00:04:09;100350.72;;;11.53;100.00
13015;BME280;6573;57.696;11.950;2022-11-03T00:06:38;100355.00;;;11.59;100.00
13015;BME280;6573;57.696;11.950;2022-11-03T00:09:08;100347.00;;;11.66;100.00
13015;BME280;6573;57.696;11.950;2022-11-03T00:11:38;100349.63;;;11.69;100.00
13015;BME280;6573;57.696;11.950;2022-11-03T00:14:08;100345.22;;;11.68;100.00
13015;BME280;6573;57.696;11.950;2022-11-03T00:16:36;100361.09;;;11.62;100.00
13015;BME280;6573;57.696;11.950;2022-11-03T00:19:07;100355.84;;;11.62;100.00
13015;BME280;6573;57.696;11.950;2022-11-03T00:21:37;100342.59;;;11.67;100.00
13015;BME280;6573;57.696;11.950;2022-11-03T00:24:06;100355.84;;;11.62;100.00
13015;BME280;6573;57.696;11.950;2022-11-03T00:26:35;100355.84;;;11.62;100.00
13015;BME280;6573;57.696;11.950;2022-11-03T00:29:06;100352.25;;;11.66;100.00
13015;BME280;6573;57.696;11.950;2022-11-03T00:31:36;100347.97;;;11.61;100.00
13015;BME280;6573;57.696;11.950;2022-11-03T00:34:06;100337.50;;;11.55;100.00
13015;BME280;6573;57.696;11.950;2022-11-03T00:36:37;100327.81;;;11.58;100.00
13015;BME280;6573;57.696;11.950;2022-11-03T00:39:06;100330.97;;;11.82;100.00
13015;BME280;6573;57.696;11.950;2022-11-03T00:41:34;100325.88;;;11.73;100.00
13015;BME280;6573;57.696;11.950;2022-11-03T00:44:09;100325.81;;;11.76;100.00
13015;BME280;6573;57.696;11.950;2022-11-03T00:46:41;100315.16;;;11.82;100.00
13015;BME280;6573;57.696;11.950;2022-11-03T00:49:11;100327.47;;;11.83;100.00
13015;BME280;6573;57.696;11.950;2022-11-03T00:51:39;100329.19;;;11.85;100.00
13015;BME280;6573;57.696;11.950;2022-11-03T00:54:07;100326.34;;;11.97;100.00
13015;BME280;6573;57.696;11.950;2022-11-03T00:56:37;100327.31;;;11.92;100.00
13015;BME280;6573;57.696;11.950;2022-11-03T00:59:08;100315.03;;;11.91;100.00
13015;BME280;6573;57.696;11.950;2022-11-03T01:01:37;100318.56;;;11.90;100.00
13015;BME280;6573;57.696;11.950;2022-11-03T01:04:13;100295.81;;;11.86;100.00
13015;BME280;6573;57.696;11.950;2022-11-03T01:07:00;100303.59;;;11.93;100.00
13015;BME280;6573;57.696;11.950;2022-11-03T01:09:30;100296.38;;;12.03;100.00
13015;BME280;6573;57.696;11.950;2022-11-03T01:12:04;100307.97;;;11.93;100.00
13015;BME280;6573;57.696;11.950;2022-11-03T01:14:35;100302.72;;;11.93;100.00
13015;BME280;6573;57.696;11.950;2022-11-03T01:17:04;100306.22;;;11.92;100.00
13015;BME280;6573;57.696;11.950;2022-11-03T01:19:34;100304.50;;;11.91;100.00
13015;BME280;6573;57.696;11.950;2022-11-03T01:22:06;100297.28;;;12.02;100.00
13015;BME280;6573;57.696;11.950;2022-11-03T01:24:37;100283.47;;;11.88;100.00
13015;BME280;6573;57.696;11.950;2022-11-03T01:27:06;100280.81;;;11.88;100.00
13015;BME280;6573;57.696;11.950;2022-11-03T01:29:34;100280.75;;;11.92;100.00
13015;BME280;6573;57.696;11.950;2022-11-03T01:32:03;100283.28;;;11.97;100.00
13015;BME280;6573;57.696;11.950;2022-11-03T01:34:31;100276.22;;;11.99;100.00
13015;BME280;6573;57.696;11.950;2022-11-03T01:37:01;100283.28;;;11.97;100.00
13015;BME280;6573;57.696;11.950;2022-11-03T01:39:33;100284.97;;;12.01;100.00
13015;BME280;6573;57.696;11.950;2022-11-03T01:42:01;100283.22;;;12.03;100.00
13015;BME280;6573;57.696;11.950;2022-11-03T01:44:31;100284.97;;;12.01;100.00
13015;BME280;6573;57.696;11.950;2022-11-03T01:47:11;100284.97;;;12.01;100.00
13015;BME280;6573;57.696;11.950;2022-11-03T01:49:44;100269.00;;;12.10;100.00
13015;BME280;6573;57.696;11.950;2022-11-03T01:52:20;100257.72;;;12.02;100.00
13015;BME280;6573;57.696;11.950;2022-11-03T01:54:54;100253.25;;;12.07;100.00
13015;BME280;6573;57.696;11.950;2022-11-03T01:57:28;100256.72;;;12.09;100.00
13015;BME280;6573;57.696;11.950;2022-11-03T02:00:03;100255.78;;;12.11;100.00
13015;BME280;6573;57.696;11.950;2022-11-03T02:02:32;100248.81;;;12.09;100.00
13015;BME280;6573;57.696;11.950;2022-11-03T02:05:02;100239.09;;;12.11;100.00
13015;BME280;6573;57.696;11.950;2022-11-03T02:07:36;100235.56;;;12.12;100.00
13015;BME280;6573;57.696;11.950;2022-11-03T02:10:07;100231.97;;;12.16;100.00
13015;BME280;6573;57.696;11.950;2022-11-03T02:12:36;100235.47;;;12.18;100.00
13015;BME280;6573;57.696;11.950;2022-11-03T02:15:08;100221.38;;;12.19;100.00
13015;BME280;6573;57.696;11.950;2022-11-03T02:17:39;100224.06;;;12.17;100.00
13015;BME280;6573;57.696;11.950;2022-11-03T02:20:11;100214.38;;;12.18;100.00
13015;BME280;6573;57.696;11.950;2022-11-03T02:23:11;100212.69;;;12.14;100.00
13015;BME280;6573;57.696;11.950;2022-11-03T02:25:45;100212.53;;;12.23;100.00
13015;BME280;6573;57.696;11.950;2022-11-03T02:28:18;100200.22;;;12.22;100.00
13015;BME280;6573;57.696;11.950;2022-11-03T02:30:52;100184.34;;;12.25;100.00
13015;BME280;6573;57.696;11.950;2022-11-03T02:33:30;100196.56;;;12.29;100.00
13015;BME280;6573;57.696;11.950;2022-11-03T02:36:07;100190.38;;;12.31;100.00
13015;BME280;6573;57.696;11.950;2022-11-03T02:38:43;100191.50;;;12.20;100.00
13015;BME280;6573;57.696;11.950;2022-11-03T02:41:15;100193.88;;;12.30;100.00
13015;BME280;6573;57.696;11.950;2022-11-03T02:43:46;100180.81;;;12.26;100.00
13015;BME280;6573;57.696;11.950;2022-11-03T02:46:16;100184.28;;;12.28;100.00
13015;BME280;6573;57.696;11.950;2022-11-03T02:48:46;100171.31;;;12.17;100.00
13015;BME280;6573;57.696;11.950;2022-11-03T02:51:15;100170.16;;;12.32;100.00
13015;BME280;6573;57.696;11.950;2022-11-03T02:53:46;100174.50;;;12.33;100.00
13015;BME280;6573;57.696;11.950;2022-11-03T02:56:22;100178.94;;;12.31;100.00
13015;BME280;6573;57.696;11.950;2022-11-03T02:58:56;100164.88;;;12.32;100.00
13015;BME280;6573;57.696;11.950;2022-11-03T03:01:32;100149.09;;;12.29;100.00
13015;BME280;6573;57.696;11.950;2022-11-03T03:04:08;100156.13;;;12.30;100.00
13015;BME280;6573;57.696;11.950;2022-11-03T03:06:40;100143.81;;;12.29;100.00
13015;BME280;6573;57.696;11.950;2022-11-03T03:09:14;100145.63;;;12.27;100.00
13015;BME280;6573;57.696;11.950;2022-11-03T03:11:46;100132.50;;;12.25;100.00
13015;BME280;6573;57.696;11.950;2022-11-03T03:14:17;100128.06;;;12.26;100.00
13015;BME280;6573;57.696;11.950;2022-11-03T03:16:52;100135.09;;;12.27;100.00
13015;BME280;6573;57.696;11.950;2022-11-03T03:19:37;100128.06;;;12.26;100.00
13015;BME280;6573;57.696;11.950;2022-11-03T03:22:14;100125.31;;;12.30;100.00
13015;BME280;6573;57.696;11.950;2022-11-03T03:24:51;100113.94;;;12.30;100.00
13015;BME280;6573;57.696;11.950;2022-11-03T03:27:24;100104.34;;;12.26;100.00
13015;BME280;6573;57.696;11.950;2022-11-03T03:29:56;100117.47;;;12.29;100.00
13015;BME280;6573;57.696;11.950;2022-11-03T03:32:27;100119.13;;;12.33;100.00
13015;BME280;6573;57.696;11.950;2022-11-03T03:34:59;100121.69;;;12.36;100.00
13015;BME280;6573;57.696;11.950;2022-11-03T03:37:31;100118.13;;;12.40;100.00
13015;BME280;6573;57.696;11.950;2022-11-03T03:40:07;100117.25;;;12.38;100.00
13015;BME280;6573;57.696;11.950;2022-11-03T03:42:39;100110.25;;;12.37;100.00
13015;BME280;6573;57.696;11.950;2022-11-03T03:45:11;100103.13;;;12.42;100.00
13015;BME280;6573;57.696;11.950;2022-11-03T03:47:43;100108.41;;;12.42;100.00
13015;BME280;6573;57.696;11.950;2022-11-03T03:50:11;100092.91;;;12.27;100.00
13015;BME280;6573;57.696;11.950;2022-11-03T03:52:40;100105.03;;;12.34;100.00
13015;BME280;6573;57.696;11.950;2022-11-03T03:55:15;100103.38;;;12.30;100.00
13015;BME280;6573;57.696;11.950;2022-11-03T03:57:46;100097.34;;;12.23;100.00
13015;BME280;6573;57.696;11.950;2022-11-03T04:00:15;100112.06;;;12.35;100.00
13015;BME280;6573;57.696;11.950;2022-11-03T04:02:45;100111.22;;;12.33;100.00
13015;BME280;6573;57.696;11.950;2022-11-03T04:05:13;100115.66;;;12.31;100.00
13015;BME280;6573;57.696;11.950;2022-11-03T04:07:42;100112.13;;;12.32;100.00
13015;BME280;6573;57.696;11.950;2022-11-03T04:10:18;100113.84;;;12.33;100.00
13015;BME280;6573;57.696;11.950;2022-11-03T04:12:48;100112.06;;;12.35;100.00
13015;BME280;6573;57.696;11.950;2022-11-03T04:15:34;100119.88;;;12.40;100.00
13015;BME280;6573;57.696;11.950;2022-11-03T04:18:21;100111.03;;;12.41;100.00
13015;BME280;6573;57.696;11.950;2022-11-03T04:21:10;100120.97;;;12.28;100.00
13015;BME280;6573;57.696;11.950;2022-11-03T04:23:56;100113.06;;;12.29;100.00
13015;BME280;6573;57.696;11.950;2022-11-03T04:26:27;100117.41;;;12.32;100.00
13015;BME280;6573;57.696;11.950;2022-11-03T04:28:57;100097.19;;;12.31;100.00
13015;BME280;6573;57.696;11.950;2022-11-03T04:31:28;100099.78;;;12.34;100.00
13015;BME280;6573;57.696;11.950;2022-11-03T04:33:58;100084.84;;;12.33;100.00
13015;BME280;6573;57.696;11.950;2022-11-03T04:36:26;100089.25;;;12.32;100.00
13015;BME280;6573;57.696;11.950;2022-11-03T04:38:55;100054.50;;;12.14;100.00
13015;BME280;6573;57.696;11.950;2022-11-03T04:41:28;100075.31;;;12.26;100.00
13015;BME280;6573;57.696;11.950;2022-11-03T04:43:59;100065.75;;;12.22;100.00
13015;BME280;6573;57.696;11.950;2022-11-03T04:46:31;100075.41;;;12.23;100.00
13015;BME280;6573;57.696;11.950;2022-11-03T04:49:03;100061.47;;;12.18;100.00
13015;BME280;6573;57.696;11.950;2022-11-03T04:51:33;100047.63;;;12.07;100.00
13015;BME280;6573;57.696;11.950;2022-11-03T04:54:04;100066.78;;;12.15;100.00
13015;BME280;6573;57.696;11.950;2022-11-03T04:56:34;100068.34;;;12.25;100.00
13015;BME280;6573;57.696;11.950;2022-11-03T04:59:10;100071.13;;;12.17;100.00
13015;BME280;6573;57.696;11.950;2022-11-03T05:01:39;100075.47;;;12.20;100.00
13015;BME280;6573;57.696;11.950;2022-11-03T05:04:11;100079.09;;;12.14;100.00
13015;BME280;6573;57.696;11.950;2022-11-03T05:06:40;100082.56;;;12.18;100.00
13015;BME280;6573;57.696;11.950;2022-11-03T05:09:12;100077.28;;;12.18;100.00
13015;BME280;6573;57.696;11.950;2022-11-03T05:11:45;100081.00;;;12.08;100.00
13015;BME280;6573;57.696;11.950;2022-11-03T05:14:17;100075.81;;;12.03;100.00
13015;BME280;6573;57.696;11.950;2022-11-03T05:16:47;100062.66;;;12.02;100.00
13015;BME280;6573;57.696;11.950;2022-11-03T05:19:20;100065.50;;;11.93;100.00
13015;BME280;6573;57.696;11.950;2022-11-03T05:21:49;100072.44;;;11.97;100.00
13015;BME280;6573;57.696;11.950;2022-11-03T05:24:20;100064.63;;;11.92;100.00
13015;BME280;6573;57.696;11.950;2022-11-03T05:26:53;100056.75;;;11.91;100.00
13015;BME280;6573;57.696;11.950;2022-11-03T05:29:25;100051.34;;;11.97;100.00
13015;BME280;6573;57.696;11.950;2022-11-03T05:31:59;100068.09;;;11.94;100.00
13015;BME280;6573;57.696;11.950;2022-11-03T05:34:34;100074.28;;;11.92;100.00
13015;BME280;6573;57.696;11.950;2022-11-03T05:37:14;100052.22;;;11.97;100.00
13015;BME280;6573;57.696;11.950;2022-11-03T05:39:55;100041.94;;;11.85;100.00
13015;BME280;6573;57.696;11.950;2022-11-03T05:42:31;100058.38;;;11.98;100.00
13015;BME280;6573;57.696;11.950;2022-11-03T05:45:06;100042.66;;;11.92;100.00
13015;BME280;6573;57.696;11.950;2022-11-03T05:47:37;100061.78;;;12.03;100.00
13015;BME280;6573;57.696;11.950;2022-11-03T05:50:15;100048.78;;;11.94;100.00
13015;BME280;6573;57.696;11.950;2022-11-03T05:52:47;100052.22;;;11.97;100.00
13015;BME280;6573;57.696;11.950;2022-11-03T05:55:24;100053.19;;;11.93;100.00
13015;BME280;6573;57.696;11.950;2022-11-03T05:57:55;100054.97;;;11.93;100.00
13015;BME280;6573;57.696;11.950;2022-11-03T06:00:32;100028.72;;;11.87;100.00
13015;BME280;6573;57.696;11.950;2022-11-03T06:03:00;100042.56;;;11.98;100.00
13015;BME280;6573;57.696;11.950;2022-11-03T06:05:32;100040.69;;;12.03;100.00
13015;BME280;6573;57.696;11.950;2022-11-03T06:08:04;100015.53;;;11.88;100.00
13015;BME280;6573;57.696;11.950;2022-11-03T06:10:41;100030.06;;;12.06;100.00
13015;BME280;6573;57.696;11.950;2022-11-03T06:13:15;100043.28;;;12.04;100.00
13015;BME280;6573;57.696;11.950;2022-11-03T06:15:46;100031.25;;;11.93;100.00
13015;BME280;6573;57.696;11.950;2022-11-03T06:18:18;100014.66;;;11.88;100.00
13015;BME280;6573;57.696;11.950;2022-11-03T06:20:50;100025.94;;;11.94;100.00
13015;BME280;6573;57.696;11.950;2022-11-03T06:23:19;100029.38;;;11.96;100.00
13015;BME280;6573;57.696;11.950;2022-11-03T06:25:49;100024.94;;;12.00;100.00
13015;BME280;6573;57.696;11.950;2022-11-03T06:28:21;100037.28;;;11.98;100.00
13015;BME280;6573;57.696;11.950;2022-11-03T06:30:52;100021.47;;;11.98;100.00
13015;BME280;6573;57.696;11.950;2022-11-03T06:33:24;100018.06;;;11.93;100.00
13015;BME280;6573;57.696;11.950;2022-11-03T06:35:57;100024.09;;;11.98;100.00
13015;BME280;6573;57.696;11.950;2022-11-03T06:38:28;100016.03;;;12.04;100.00
13015;BME280;6573;57.696;11.950;2022-11-03T06:40:57;100017.97;;;11.96;100.00
13015;BME280;6573;57.696;11.950;2022-11-03T06:43:36;100023.34;;;11.93;100.00
13015;BME280;6573;57.696;11.950;2022-11-03T06:46:13;100015.44;;;11.93;100.00
13015;BME280;6573;57.696;11.950;2022-11-03T06:48:42;100016.19;;;11.98;100.00
13015;BME280;6573;57.696;11.950;2022-11-03T06:51:15;100014.38;;;12.00;100.00
13015;BME280;6573;57.696;11.950;2022-11-03T06:53:46;100021.31;;;12.04;100.00
13015;BME280;6573;57.696;11.950;2022-11-03T06:56:18;100032.00;;;11.98;100.00
13015;BME280;6573;57.696;11.950;2022-11-03T06:58:47;100031.81;;;12.07;100.00
13015;BME280;6573;57.696;11.950;2022-11-03T07:01:20;100035.28;;;12.09;100.00
13015;BME280;6573;57.696;11.950;2022-11-03T07:03:51;100040.59;;;12.06;100.00
13015;BME280;6573;57.696;11.950;2022-11-03T07:06:24;100046.75;;;12.06;100.00
13015;BME280;6573;57.696;11.950;2022-11-03T07:08:55;100021.88;;;12.19;100.00
13015;BME280;6573;57.696;11.950;2022-11-03T07:11:58;100023.63;;;12.19;100.00
13015;BME280;6573;57.696;11.950;2022-11-03T07:14:30;100019.06;;;12.27;100.00
13015;BME280;6573;57.696;11.950;2022-11-03T07:17:02;99989.50;;;12.13;100.00
13015;BME280;6573;57.696;11.950;2022-11-03T07:19:35;99999.28;;;12.08;100.00
13015;BME280;6573;57.696;11.950;2022-11-03T07:22:09;100006.63;;;12.32;100.00
13015;BME280;6573;57.696;11.950;2022-11-03T07:24:58;100014.66;;;12.27;100.00
13015;BME280;6573;57.696;11.950;2022-11-03T07:27:34;100006.63;;;12.32;100.00
13015;BME280;6573;57.696;11.950;2022-11-03T07:30:13;100010.03;;;12.37;100.00
13015;BME280;6573;57.696;11.950;2022-11-03T07:32:45;100018.91;;;12.33;100.00
13015;BME280;6573;57.696;11.950;2022-11-03T07:35:28;100028.34;;;12.43;100.00
13015;BME280;6573;57.696;11.950;2022-11-03T07:38:18;100022.25;;;12.41;100.00
13015;BME280;6573;57.696;11.950;2022-11-03T07:40:48;100025.81;;;12.40;100.00
13015;BME280;6573;57.696;11.950;2022-11-03T07:43:18;100032.50;;;12.53;100.00
13015;BME280;6573;57.696;11.950;2022-11-03T07:45:48;100026.69;;;12.39;100.00
13015;BME280;6573;57.696;11.950;2022-11-03T07:48:20;100036.25;;;12.43;100.00
13015;BME280;6573;57.696;11.950;2022-11-03T07:50:51;100043.22;;;12.47;100.00
13015;BME280;6573;57.696;11.950;2022-11-03T07:53:27;100047.66;;;12.45;100.00
13015;BME280;6573;57.696;11.950;2022-11-03T07:55:59;100045.84;;;12.47;100.00
13015;BME280;6573;57.696;11.950;2022-11-03T07:58:36;100054.38;;;12.58;100.00
13015;BME280;6573;57.696;11.950;2022-11-03T08:01:18;100067.66;;;12.55;100.00
13015;BME280;6573;57.696;11.950;2022-11-03T08:03:50;100071.91;;;12.61;100.00
13015;BME280;6573;57.696;11.950;2022-11-03T08:06:20;100064.16;;;12.53;100.00
13015;BME280;6573;57.696;11.950;2022-11-03T08:08:48;100069.25;;;12.62;100.00
13015;BME280;6573;57.696;11.950;2022-11-03T08:11:16;100063.22;;;12.57;100.00
13015;BME280;6573;57.696;11.950;2022-11-03T08:13:49;100074.66;;;12.56;100.00
13015;BME280;6573;57.696;11.950;2022-11-03T08:16:17;100061.22;;;12.67;100.00
13015;BME280;6573;57.696;11.950;2022-11-03T08:18:46;100061.53;;;12.53;100.00
13015;BME280;6573;57.696;11.950;2022-11-03T08:21:16;100069.38;;;12.56;100.00
13015;BME280;6573;57.696;11.950;2022-11-03T08:23:44;100061.44;;;12.58;100.00
13015;BME280;6573;57.696;11.950;2022-11-03T08:26:13;100061.41;;;12.59;100.00
13015;BME280;6573;57.696;11.950;2022-11-03T08:28:42;100067.44;;;12.64;100.00
13015;BME280;6573;57.696;11.950;2022-11-03T08:31:10;100056.94;;;12.61;100.00
13015;BME280;6573;57.696;11.950;2022-11-03T08:33:39;100054.34;;;12.60;100.00
13015;BME280;6573;57.696;11.950;2022-11-03T08:36:08;100063.88;;;12.65;100.00
13015;BME280;6573;57.696;11.950;2022-11-03T08:38:38;100057.81;;;12.62;100.00
13015;BME280;6573;57.696;11.950;2022-11-03T08:41:06;100063.75;;;12.71;100.00
13015;BME280;6573;57.696;11.950;2022-11-03T08:43:34;100065.63;;;12.66;100.00
13015;BME280;6573;57.696;11.950;2022-11-03T08:46:02;100067.09;;;12.78;100.00
13015;BME280;6573;57.696;11.950;2022-11-03T08:48:41;100042.50;;;12.77;100.00
13015;BME280;6573;57.696;11.950;2022-11-03T08:51:09;100053.06;;;12.77;100.00
13015;BME280;6573;57.696;11.950;2022-11-03T08:53:41;100051.19;;;12.82;100.00
13015;BME280;6573;57.696;11.950;2022-11-03T08:56:10;100042.41;;;12.80;100.00
13015;BME280;6573;57.696;11.950;2022-11-03T08:58:41;100047.38;;;12.92;100.00
13015;BME280;6573;57.696;11.950;2022-11-03T09:01:09;100042.56;;;12.74;100.00
13015;BME280;6573;57.696;11.950;2022-11-03T09:03:38;100042.34;;;12.83;100.00
13015;BME280;6573;57.696;11.950;2022-11-03T09:06:07;100037.88;;;12.85;100.00
13015;BME280;6573;57.696;11.950;2022-11-03T09:08:35;100047.69;;;12.80;100.00
13015;BME280;6573;57.696;11.950;2022-11-03T09:11:25;100044.03;;;12.87;100.00
13015;BME280;6573;57.696;11.950;2022-11-03T09:13:53;100033.59;;;12.81;100.00
13015;BME280;6573;57.696;11.950;2022-11-03T09:16:23;100045.16;;;12.76;100.00
13015;BME280;6573;57.696;11.950;2022-11-03T09:18:52;100042.41;;;12.80;100.00
13015;BME280;6573;57.696;11.950;2022-11-03T09:21:20;100029.97;;;12.85;100.00
13015;BME280;6573;57.696;11.950;2022-11-03T09:23:48;100028.19;;;12.87;100.00
13015;BME280;6573;57.696;11.950;2022-11-03T09:26:17;100017.63;;;12.87;100.00
13015;BME280;6573;57.696;11.950;2022-11-03T09:28:46;100031.66;;;12.89;100.00
13015;BME280;6573;57.696;11.950;2022-11-03T09:31:15;100027.13;;;12.93;100.00
13015;BME280;6573;57.696;11.950;2022-11-03T09:33:43;100030.72;;;12.90;100.00
13015;BME280;6573;57.696;11.950;2022-11-03T09:36:12;100025.44;;;12.92;100.00
13015;BME280;6573;57.696;11.950;2022-11-03T09:38:40;100022.81;;;12.90;100.00
13015;BME280;6573;57.696;11.950;2022-11-03T09:41:08;100032.41;;;12.94;100.00
13015;BME280;6573;57.696;11.950;2022-11-03T09:43:55;100018.41;;;12.91;100.00
13015;BME280;6573;57.696;11.950;2022-11-03T09:46:24;100030.66;;;12.93;100.00
13015;BME280;6573;57.696;11.950;2022-11-03T09:48:54;100013.81;;;12.97;100.00
13015;BME280;6573;57.696;11.950;2022-11-03T09:51:24;100033.16;;;12.99;100.00
13015;BME280;6573;57.696;11.950;2022-11-03T09:53:55;100019.34;;;12.88;100.00
13015;BME280;6573;57.696;11.950;2022-11-03T09:56:24;100026.25;;;12.92;100.00
13015;BME280;6573;57.696;11.950;2022-11-03T09:58:55;100027.97;;;12.95;100.00
13015;BME280;6573;57.696;11.950;2022-11-03T10:01:24;100022.72;;;12.93;100.00
13015;BME280;6573;57.696;11.950;2022-11-03T10:03:55;100038.63;;;12.90;100.00
13015;BME280;6573;57.696;11.950;2022-11-03T10:06:26;100027.13;;;12.94;100.00
13015;BME280;6573;57.696;11.950;2022-11-03T10:08:54;100021.09;;;12.89;100.00
13015;BME280;6573;57.696;11.950;2022-11-03T10:11:23;100029.75;;;12.94;100.00
13015;BME280;6573;57.696;11.950;2022-11-03T10:13:53;100022.72;;;12.93;100.00
13015;BME280;6573;57.696;11.950;2022-11-03T10:16:25;100022.81;;;12.90;100.00
13015;BME280;6573;57.696;11.950;2022-11-03T10:18:54;100024.47;;;12.94;100.00
13015;BME280;6573;57.696;11.950;2022-11-03T10:21:25;100034.09;;;12.97;100.00
13015;BME280;6573;57.696;11.950;2022-11-03T10:23:54;100028.63;;;13.05;100.00
13015;BME280;6573;57.696;11.950;2022-11-03T10:26:22;100017.38;;;12.96;100.00
13015;BME280;6573;57.696;11.950;2022-11-03T10:28:59;100021.84;;;12.94;100.00
13015;BME280;6573;57.696;11.950;2022-11-03T10:31:33;100014.66;;;12.99;100.00
13015;BME280;6573;57.696;11.950;2022-11-03T10:34:02;100027.69;;;13.06;100.00
13015;BME280;6573;57.696;11.950;2022-11-03T10:36:33;100034.59;;;13.13;100.00
13015;BME280;6573;57.696;11.950;2022-11-03T10:39:24;100037.38;;;13.05;100.00
13015;BME280;6573;57.696;11.950;2022-11-03T10:41:58;100036.41;;;13.11;100.00
13015;BME280;6573;57.696;11.950;2022-11-03T10:44:27;100029.31;;;13.13;100.00
13015;BME280;6573;57.696;11.950;2022-11-03T10:46:59;100037.13;;;13.17;100.00
13015;BME280;6573;57.696;11.950;2022-11-03T10:49:29;100027.66;;;13.09;100.00
13015;BME280;6573;57.696;11.950;2022-11-03T10:52:08;100045.06;;;13.16;100.00
13015;BME280;6573;57.696;11.950;2022-11-03T10:54:42;100034.50;;;13.16;100.00
13015;BME280;6573;57.696;11.950;2022-11-03T10:57:11;100031.88;;;13.16;100.00
13015;BME280;6573;57.696;11.950;2022-11-03T10:59:40;100024.97;;;13.10;100.00
13015;BME280;6573;57.696;11.950;2022-11-03T11:02:15;100013.63;;;13.07;100.00
13015;BME280;6573;57.696;11.950;2022-11-03T11:04:46;100011.75;;;13.12;100.00
13015;BME280;6573;57.696;11.950;2022-11-03T11:07:19;100006.53;;;13.09;100.00
13015;BME280;6573;57.696;11.950;2022-11-03T11:09:49;100019.78;;;13.07;100.00
13015;BME280;6573;57.696;11.950;2022-11-03T11:12:20;100013.47;;;13.13;100.00
13015;BME280;6573;57.696;11.950;2022-11-03T11:14:54;100018.97;;;13.04;100.00
13015;BME280;6573;57.696;11.950;2022-11-03T11:17:46;100022.50;;;13.02;100.00
13015;BME280;6573;57.696;11.950;2022-11-03T11:20:35;100024.97;;;13.10;100.00
13015;BME280;6573;57.696;11.950;2022-11-03T11:26:29;100019.66;;;13.12;100.00
13015;BME280;6573;57.696;11.950;2022-11-03T11:39:06;100008.03;;;13.19;100.00
13015;BME280;6573;57.696;11.950;2022-11-03T11:42:04;100015.13;;;13.17;100.00
13015;BME280;6573;57.696;11.950;2022-11-03T11:44:52;100011.75;;;13.12;100.00
13015;BME280;6573;57.696;11.950;2022-11-03T11:47:28;100011.56;;;13.18;100.00
13015;BME280;6573;57.696;11.950;2022-11-03T11:50:25;99995.66;;;13.21;100.00
13015;BME280;6573;57.696;11.950;2022-11-03T11:53:10;99999.38;;;13.14;100.00
13015;BME280;6573;57.696;11.950;2022-11-03T11:55:44;100004.66;;;13.14;100.00
13015;BME280;6573;57.696;11.950;2022-11-03T11:58:17;99997.72;;;13.10;100.00
13015;BME280;6573;57.696;11.950;2022-11-03T12:00:52;100002.91;;;13.13;100.00
13015;BME280;6573;57.696;11.950;2022-11-03T12:03:35;99997.72;;;13.10;100.00
13015;BME280;6573;57.696;11.950;2022-11-03T12:06:05;100009.78;;;13.20;100.00
13015;BME280;6573;57.696;11.950;2022-11-03T12:08:33;100000.69;;;13.30;100.00
13015;BME280;6573;57.696;11.950;2022-11-03T12:11:04;100009.78;;;13.20;100.00
13015;BME280;6573;57.696;11.950;2022-11-03T12:13:42;100002.06;;;13.12;100.00
13015;BME280;6573;57.696;11.950;2022-11-03T12:16:33;99994.09;;;13.14;100.00
13015;BME280;6573;57.696;11.950;2022-11-03T12:19:36;99986.97;;;13.16;100.00
13015;BME280;6573;57.696;11.950;2022-11-03T12:22:07;99977.09;;;13.24;100.00
13015;BME280;6573;57.696;11.950;2022-11-03T12:24:46;99971.06;;;13.19;100.00
13015;BME280;6573;57.696;11.950;2022-11-03T12:27:41;99975.66;;;13.12;100.00
13015;BME280;6573;57.696;11.950;2022-11-03T12:30:15;99975.91;;;13.00;100.00
13015;BME280;6573;57.696;11.950;2022-11-03T12:32:45;99969.50;;;13.12;100.00
13015;BME280;6573;57.696;11.950;2022-11-03T12:35:13;99963.47;;;13.07;100.00
13015;BME280;6573;57.696;11.950;2022-11-03T12:37:41;99964.28;;;13.09;100.00
13015;BME280;6573;57.696;11.950;2022-11-03T12:40:11;99942.44;;;13.02;100.00
13015;BME280;6573;57.696;11.950;2022-11-03T12:42:42;99956.47;;;13.04;100.00
13015;BME280;6573;57.696;11.950;2022-11-03T12:45:10;99944.22;;;13.00;100.00
13015;BME280;6573;57.696;11.950;2022-11-03T12:47:42;99944.13;;;13.06;100.00
13015;BME280;6573;57.696;11.950;2022-11-03T12:50:15;99937.94;;;13.06;100.00
13015;BME280;6573;57.696;11.950;2022-11-03T12:52:52;99920.31;;;13.08;100.00
13015;BME280;6573;57.696;11.950;2022-11-03T12:55:20;99927.25;;;13.12;100.00
13015;BME280;6573;57.696;11.950;2022-11-03T12:57:50;99916.78;;;13.09;100.00
13015;BME280;6573;57.696;11.950;2022-11-03T13:00:19;99919.88;;;13.23;100.00
13015;BME280;6573;57.696;11.950;2022-11-03T13:02:47;99913.03;;;13.16;100.00
13015;BME280;6573;57.696;11.950;2022-11-03T13:05:15;99917.38;;;13.18;100.00
13015;BME280;6573;57.696;11.950;2022-11-03T13:07:44;99918.25;;;13.19;100.00
13015;BME280;6573;57.696;11.950;2022-11-03T13:10:12;99904.31;;;13.14;100.00
13015;BME280;6573;57.696;11.950;2022-11-03T13:12:40;99914.53;;;13.26;100.00
13015;BME280;6573;57.696;11.950;2022-11-03T13:15:12;99912.78;;;13.25;100.00
13015;BME280;6573;57.696;11.950;2022-11-03T13:17:41;99890.81;;;13.24;100.00
13015;BME280;6573;57.696;11.950;2022-11-03T13:20:29;99917.00;;;13.32;100.00
13015;BME280;6573;57.696;11.950;2022-11-03T13:22:59;99919.38;;;13.41;100.00